createdAt,value
2019-01-14T00:02:04.214Z,6.00
2019-01-14T00:04:34.908Z,6.00
2019-01-14T00:07:05.540Z,6.00
2019-01-14T00:09:36.246Z,6.00
2019-01-14T00:12:06.878Z,6.10
2019-01-14T00:14:37.497Z,6.10
2019-01-14T00:17:08.210Z,6.00
2019-01-14T00:19:38.821Z,6.00
2019-01-14T00:22:09.470Z,6.00
2019-01-14T00:24:40.164Z,6.00
2019-01-14T00:27:10.807Z,6.00
2019-01-14T00:29:41.430Z,5.90
2019-01-14T00:32:12.133Z,6.00
2019-01-14T00:34:42.813Z,5.90
2019-01-14T00:37:13.441Z,6.00
2019-01-14T00:39:44.057Z,6.00
2019-01-14T00:42:14.697Z,6.00
2019-01-14T00:44:45.293Z,6.00
2019-01-14T00:47:15.909Z,6.00
2019-01-14T00:49:46.529Z,5.90
2019-01-14T00:52:17.160Z,5.90
2019-01-14T00:54:47.789Z,5.80
2019-01-14T00:57:18.423Z,5.80
2019-01-14T00:59:49.112Z,5.70
2019-01-14T01:02:19.821Z,5.70
2019-01-14T01:04:50.436Z,5.60
2019-01-14T01:07:21.132Z,5.60
2019-01-14T01:09:51.762Z,5.70
2019-01-14T01:12:22.493Z,5.70
2019-01-14T01:14:54.164Z,5.70
2019-01-14T01:17:24.801Z,5.80
2019-01-14T01:19:55.490Z,5.80
2019-01-14T01:22:26.209Z,5.90
2019-01-14T01:24:56.816Z,5.90
2019-01-14T01:27:27.371Z,5.90
2019-01-14T03:35:29.453Z,5.60
2019-01-14T03:38:00.062Z,5.60
2019-01-14T05:12:50.304Z,5.90
2019-01-14T05:15:20.986Z,5.80
2019-01-14T07:44:02.893Z,5.90
2019-01-14T07:46:33.506Z,5.90
2019-01-14T07:49:04.221Z,5.90
2019-01-14T07:51:34.918Z,5.90
2019-01-14T07:54:05.646Z,5.90
2019-01-14T07:56:36.477Z,5.80
2019-01-14T07:59:07.212Z,5.90
2019-01-14T08:01:37.869Z,5.90
2019-01-14T08:04:08.590Z,5.90
2019-01-14T08:06:39.276Z,5.90
2019-01-14T08:09:09.937Z,5.90
2019-01-14T08:11:40.825Z,5.90
2019-01-14T08:14:11.536Z,5.90
2019-01-14T08:16:42.141Z,6.00
2019-01-14T08:19:12.852Z,5.90
2019-01-14T08:21:43.476Z,5.90
2019-01-14T08:24:14.124Z,5.90
2019-01-14T08:26:44.732Z,6.00
2019-01-14T08:29:15.457Z,6.00
2019-01-14T08:31:46.142Z,6.10
2019-01-14T08:34:16.784Z,6.10
2019-01-14T08:36:47.490Z,6.10
2019-01-14T08:39:18.177Z,6.30
2019-01-14T08:41:54.030Z,6.30
2019-01-14T08:44:30.817Z,6.20
2019-01-14T08:47:01.433Z,6.20
2019-01-14T08:49:32.101Z,6.30
2019-01-14T08:52:02.808Z,6.30
2019-01-14T08:54:33.482Z,6.30
2019-01-14T08:57:04.285Z,6.40
2019-01-14T08:59:34.997Z,6.50
2019-01-14T09:02:05.806Z,6.70
2019-01-14T09:04:36.458Z,6.70
2019-01-14T09:07:07.067Z,6.70
2019-01-14T09:09:37.693Z,6.60
2019-01-14T09:12:08.381Z,6.60
2019-01-14T09:14:39.101Z,6.70
2019-01-14T09:17:09.647Z,6.60
2019-01-14T09:19:40.360Z,6.60
2019-01-14T09:22:10.972Z,6.50
2019-01-14T09:24:41.637Z,6.50
2019-01-14T09:27:12.310Z,6.40
2019-01-14T09:29:42.966Z,6.40
2019-01-14T09:32:13.869Z,6.40
2019-01-14T09:34:44.810Z,6.40
2019-01-14T09:37:15.502Z,6.40
2019-01-14T09:39:46.161Z,6.50
2019-01-14T09:42:16.841Z,6.50
2019-01-14T09:44:47.494Z,6.60
2019-01-14T09:47:18.182Z,6.70
2019-01-14T09:49:48.813Z,6.70
2019-01-14T09:52:19.434Z,6.80
2019-01-14T09:54:50.017Z,6.90
2019-01-14T09:57:20.645Z,6.90
2019-01-14T09:59:51.371Z,6.90
2019-01-14T10:02:22.061Z,7.00
2019-01-14T10:04:52.724Z,6.90
2019-01-14T10:07:23.265Z,6.80
2019-01-14T10:09:53.978Z,6.80
2019-01-14T10:12:24.693Z,6.80
2019-01-14T10:14:55.261Z,6.80
2019-01-14T10:17:27.245Z,6.70
2019-01-14T10:19:57.885Z,6.70
2019-01-14T10:22:29.562Z,6.70
2019-01-14T10:25:00.638Z,6.70
2019-01-14T10:27:31.330Z,6.60
2019-01-14T10:30:01.898Z,6.60
2019-01-14T10:32:32.590Z,6.60
2019-01-14T10:35:03.350Z,6.70
2019-01-14T10:37:34.993Z,6.70
2019-01-14T10:40:06.913Z,6.60
2019-01-14T10:42:38.509Z,6.60
2019-01-14T10:45:12.989Z,6.60
2019-01-14T10:47:43.593Z,6.70
2019-01-14T10:50:14.645Z,6.90
2019-01-14T10:52:45.331Z,7.00
2019-01-14T10:55:16.477Z,7.10
2019-01-14T10:57:47.315Z,7.10
2019-01-14T11:00:20.257Z,7.00
2019-01-14T11:02:50.938Z,7.00
2019-01-14T11:05:24.689Z,7.00
2019-01-14T11:07:56.573Z,7.00
2019-01-14T11:10:27.298Z,6.90
2019-01-14T11:12:58.026Z,6.90
2019-01-14T11:15:28.796Z,6.90
2019-01-14T11:17:59.418Z,6.80
2019-01-14T11:20:31.561Z,6.80
2019-01-14T11:23:02.840Z,6.90
2019-01-14T11:25:33.474Z,7.00
2019-01-14T11:28:04.685Z,6.90
2019-01-14T11:30:35.525Z,6.90
2019-01-14T11:33:06.139Z,6.90
2019-01-14T11:35:38.460Z,6.90
2019-01-14T11:38:29.649Z,6.90
2019-01-14T11:41:00.287Z,6.90
2019-01-14T11:43:30.979Z,6.80
2019-01-14T11:46:02.751Z,6.70
2019-01-14T11:48:33.445Z,6.70
2019-01-14T11:51:04.858Z,6.90
2019-01-14T11:53:35.546Z,7.20
2019-01-14T11:56:06.187Z,7.20
2019-01-14T11:58:36.873Z,6.90
2019-01-14T12:01:07.589Z,6.80
2019-01-14T12:03:38.277Z,6.80
2019-01-14T12:06:08.973Z,6.90
2019-01-14T12:08:39.666Z,6.90
2019-01-14T12:11:10.327Z,6.90
2019-01-14T12:13:41.012Z,6.90
2019-01-14T12:16:11.669Z,7.00
2019-01-14T12:18:42.356Z,7.20
2019-01-14T12:21:13.069Z,7.40
2019-01-14T12:23:43.625Z,7.70
2019-01-14T12:26:14.345Z,7.90
2019-01-14T12:28:45.029Z,7.50
2019-01-14T12:31:17.072Z,7.30
2019-01-14T12:33:47.761Z,7.50
2019-01-14T12:36:18.318Z,7.50
2019-01-14T12:38:49.028Z,7.60
2019-01-14T12:41:19.578Z,7.80
2019-01-14T12:43:50.293Z,7.80
2019-01-14T12:46:20.913Z,7.70
2019-01-14T12:48:51.553Z,8.00
2019-01-14T12:51:22.169Z,8.10
2019-01-14T12:53:52.808Z,8.00
2019-01-14T12:56:23.518Z,7.90
2019-01-14T12:58:54.229Z,7.80
2019-01-14T13:01:24.842Z,8.00
2019-01-14T13:03:55.473Z,7.90
2019-01-14T13:06:26.167Z,8.50
2019-01-14T13:08:56.880Z,8.60
2019-01-14T13:11:27.490Z,8.20
2019-01-14T13:13:58.046Z,7.70
2019-01-14T13:16:28.664Z,7.30
2019-01-14T13:18:59.387Z,7.10
2019-01-14T13:21:31.541Z,6.90
2019-01-14T13:24:02.177Z,6.10
2019-01-14T13:26:32.726Z,4.20
2019-01-14T13:29:03.357Z,3.80
2019-01-14T13:31:33.984Z,3.70
2019-01-14T13:34:04.689Z,3.70
2019-01-14T13:36:35.309Z,3.90
2019-01-14T13:39:10.142Z,3.90
2019-01-14T13:41:40.836Z,3.80
2019-01-14T13:44:11.567Z,3.80
2019-01-14T13:46:43.220Z,3.90
2019-01-14T13:49:13.863Z,3.90
2019-01-14T13:51:46.937Z,3.90
2019-01-14T13:54:16.813Z,3.90
2019-01-14T13:56:47.537Z,4.10
2019-01-14T13:59:18.232Z,4.10
2019-01-14T14:01:51.949Z,4.20
2019-01-14T14:04:22.685Z,4.20
2019-01-14T14:06:53.314Z,4.20
2019-01-14T14:09:24.046Z,4.30
2019-01-14T14:11:54.741Z,4.30
2019-01-14T14:14:25.389Z,4.40
2019-01-14T14:16:56.092Z,4.40
2019-01-14T14:19:26.806Z,4.30
2019-01-14T14:21:57.507Z,4.30
2019-01-14T14:24:28.239Z,4.30
2019-01-14T14:26:58.937Z,4.20
2019-01-14T14:29:29.570Z,4.20
2019-01-14T14:32:00.263Z,4.20
2019-01-14T14:34:30.972Z,4.20
2019-01-14T14:37:01.589Z,4.20
2019-01-14T14:39:32.209Z,4.10
2019-01-14T14:42:02.824Z,4.20
2019-01-14T14:44:33.466Z,4.10
2019-01-14T14:47:04.148Z,4.20
2019-01-14T14:49:34.777Z,4.10
2019-01-14T14:52:05.385Z,4.00
2019-01-14T14:54:36.022Z,4.00
2019-01-14T14:57:06.657Z,4.00
2019-01-14T14:59:37.319Z,3.90
2019-01-14T15:02:07.921Z,3.90
2019-01-14T15:04:38.629Z,3.90
2019-01-14T15:07:09.337Z,3.90
2019-01-14T15:09:39.965Z,3.90
2019-01-14T15:12:10.657Z,3.90
2019-01-14T15:14:42.302Z,3.90
2019-01-14T15:17:12.909Z,3.90
2019-01-14T15:19:43.596Z,3.80
2019-01-14T15:22:14.149Z,3.80
2019-01-14T15:24:44.685Z,3.80
2019-01-14T15:27:15.341Z,3.80
2019-01-14T15:29:45.870Z,3.80
2019-01-14T15:32:16.581Z,3.80
2019-01-14T15:34:47.263Z,3.70
2019-01-14T15:37:17.987Z,3.70
2019-01-14T15:39:48.662Z,3.60
2019-01-14T15:42:19.288Z,3.50
2019-01-14T15:44:49.909Z,3.50
2019-01-14T15:47:20.555Z,3.40
2019-01-14T15:49:51.246Z,3.30
2019-01-14T15:52:21.878Z,3.30
2019-01-14T15:54:52.498Z,3.30
2019-01-14T15:57:23.281Z,3.20
2019-01-14T15:59:53.813Z,3.20
2019-01-14T16:02:24.445Z,3.30
2019-01-14T16:04:55.054Z,3.30
2019-01-14T16:07:25.692Z,3.30
2019-01-14T16:09:56.292Z,3.20
2019-01-14T16:12:26.860Z,3.30
2019-01-14T16:14:57.477Z,3.20
2019-01-14T16:17:28.186Z,3.30
2019-01-14T16:19:58.805Z,3.30
2019-01-14T16:22:29.440Z,3.30
2019-01-14T16:24:59.986Z,3.30
2019-01-14T16:27:30.616Z,3.30
2019-01-14T16:30:01.155Z,3.30
2019-01-14T16:32:32.943Z,3.30
2019-01-14T16:35:03.630Z,3.30
2019-01-14T16:37:34.267Z,3.20
2019-01-14T16:40:05.937Z,3.10
2019-01-14T16:42:36.629Z,3.10
2019-01-14T16:45:11.106Z,3.10
2019-01-14T16:47:41.833Z,3.20
2019-01-14T16:50:12.937Z,3.20
2019-01-14T16:52:44.853Z,3.20
2019-01-14T16:55:17.698Z,3.20
2019-01-14T16:57:48.410Z,3.20
2019-01-14T17:00:19.193Z,3.20
2019-01-14T17:02:49.897Z,3.20
2019-01-14T17:05:20.573Z,3.20
2019-01-14T17:07:51.287Z,3.30
2019-01-14T17:10:25.299Z,3.30
2019-01-14T17:12:54.380Z,3.30
2019-01-14T17:15:25.060Z,3.30
2019-01-14T17:17:55.772Z,3.30
2019-01-14T17:20:26.318Z,3.40
2019-01-14T17:22:57.035Z,3.40
2019-01-14T17:25:27.725Z,3.40
2019-01-14T17:27:58.363Z,3.40
2019-01-14T17:30:29.052Z,3.40
2019-01-14T17:32:59.685Z,3.40
2019-01-14T17:35:30.316Z,3.50
2019-01-14T17:38:01.033Z,3.50
2019-01-14T17:40:32.663Z,3.50
2019-01-14T17:43:04.750Z,3.50
2019-01-14T17:45:35.373Z,3.50
2019-01-14T17:48:06.126Z,3.50
2019-01-14T17:50:36.817Z,3.50
2019-01-14T17:53:07.399Z,3.50
2019-01-14T17:55:38.252Z,3.60
2019-01-14T17:58:08.998Z,3.50
2019-01-14T18:00:39.677Z,3.60
2019-01-14T18:03:11.388Z,3.60
2019-01-14T18:05:42.075Z,3.60
2019-01-14T18:08:12.805Z,3.60
2019-01-14T18:10:43.509Z,3.70
2019-01-14T18:13:14.254Z,3.70
2019-01-14T18:15:44.864Z,3.70
2019-01-14T18:18:15.545Z,3.70
2019-01-14T18:20:46.233Z,3.70
2019-01-14T18:23:17.150Z,3.80
2019-01-14T18:25:47.782Z,3.70
2019-01-14T18:28:18.488Z,3.70
2019-01-14T18:30:49.258Z,3.70
2019-01-14T18:33:21.505Z,3.70
2019-01-14T18:35:52.313Z,3.70
2019-01-14T18:38:23.077Z,3.70
2019-01-14T18:40:53.737Z,3.60
2019-01-14T18:43:24.470Z,3.50
2019-01-14T18:45:55.157Z,3.50
2019-01-14T18:48:25.729Z,3.50
2019-01-14T18:50:56.429Z,3.40
2019-01-14T18:53:27.184Z,3.30
2019-01-14T18:55:57.830Z,3.30
2019-01-14T18:58:28.502Z,3.20
2019-01-14T19:00:59.116Z,3.20
2019-01-14T19:03:29.843Z,3.40
2019-01-14T19:06:00.461Z,3.30
2019-01-14T19:08:31.185Z,3.30
2019-01-14T19:11:01.789Z,3.40
2019-01-14T19:13:32.506Z,3.30
2019-01-14T19:16:03.213Z,3.30
2019-01-14T19:18:33.970Z,3.30
2019-01-14T19:21:04.668Z,3.20
2019-01-14T19:23:35.401Z,3.30
2019-01-14T19:26:06.006Z,3.30
2019-01-14T19:28:36.653Z,3.20
2019-01-14T19:31:07.189Z,3.20
2019-01-14T19:33:38.001Z,3.10
2019-01-14T19:36:08.702Z,3.20
2019-01-14T19:38:39.409Z,3.10
2019-01-14T19:41:10.038Z,3.10
2019-01-14T19:43:40.607Z,3.00
2019-01-14T19:46:11.284Z,2.90
2019-01-14T19:48:42.022Z,2.90
2019-01-14T19:51:12.628Z,2.90
2019-01-14T19:53:43.577Z,2.80
2019-01-14T19:56:14.283Z,2.70
2019-01-14T19:58:45.172Z,2.70
2019-01-14T20:01:15.857Z,2.60
2019-01-14T20:03:46.509Z,2.50
2019-01-14T20:06:17.121Z,2.50
2019-01-14T20:08:47.770Z,2.50
2019-01-14T20:11:18.456Z,2.40
2019-01-14T20:13:49.550Z,2.40
2019-01-14T20:16:20.164Z,2.50
2019-01-14T20:18:50.865Z,2.50
2019-01-14T20:21:22.639Z,2.50
2019-01-14T20:23:53.422Z,2.40
2019-01-14T20:26:24.120Z,2.50
2019-01-14T20:28:54.834Z,2.40
2019-01-14T20:31:25.532Z,2.30
2019-01-14T20:33:56.217Z,2.30
2019-01-14T20:36:26.941Z,2.40
2019-01-14T20:38:57.641Z,2.50
2019-01-14T20:41:28.281Z,2.50
2019-01-14T20:44:05.054Z,2.60
2019-01-14T20:46:31.220Z,2.50
2019-01-14T20:49:01.834Z,2.50
2019-01-14T20:51:32.533Z,2.40
2019-01-14T20:54:03.241Z,2.40
2019-01-14T20:56:33.956Z,2.30
2019-01-14T20:59:04.605Z,2.30
2019-01-14T21:01:35.245Z,2.20
2019-01-14T21:04:05.958Z,2.30
2019-01-14T21:06:36.687Z,2.30
2019-01-14T21:09:08.183Z,2.30
2019-01-14T21:11:38.814Z,2.30
2019-01-14T21:14:09.523Z,2.40
2019-01-14T21:16:40.248Z,2.50
2019-01-14T21:19:10.885Z,2.60
2019-01-14T21:21:41.603Z,2.60
2019-01-14T21:24:12.298Z,2.50
2019-01-14T21:26:42.937Z,2.50
2019-01-14T21:29:13.569Z,2.40
2019-01-14T21:31:44.397Z,2.40
2019-01-14T21:34:15.098Z,2.30
2019-01-14T21:36:45.734Z,2.30
2019-01-14T21:39:16.345Z,2.40
2019-01-14T21:41:46.996Z,2.50
2019-01-14T21:44:17.697Z,2.50
2019-01-14T21:46:48.330Z,2.50
2019-01-14T21:49:18.950Z,2.60
2019-01-14T21:51:49.613Z,2.70
2019-01-14T21:54:20.233Z,2.70
2019-01-14T21:56:51.037Z,2.70
2019-01-14T21:59:21.602Z,2.80
2019-01-14T22:01:52.241Z,2.70
2019-01-14T22:04:22.895Z,2.70
2019-01-14T22:06:53.600Z,2.70
2019-01-14T22:09:24.213Z,2.70
2019-01-14T22:11:54.776Z,2.80
2019-01-14T22:14:25.405Z,2.70
2019-01-14T22:16:56.140Z,2.70
2019-01-14T22:19:26.755Z,2.70
2019-01-14T22:21:57.473Z,2.60
2019-01-14T22:24:28.081Z,2.50
2019-01-14T22:26:58.853Z,2.30
2019-01-14T22:29:29.473Z,2.20
2019-01-14T22:32:00.253Z,2.10
2019-01-14T22:34:30.955Z,2.00
2019-01-14T22:37:01.598Z,2.00
2019-01-14T22:39:32.297Z,2.00
2019-01-14T22:42:02.950Z,1.90
2019-01-14T22:44:33.561Z,1.90
2019-01-14T22:47:04.262Z,1.90
2019-01-14T22:49:34.873Z,2.00
2019-01-14T22:52:05.578Z,2.00
2019-01-14T22:54:36.180Z,2.00
2019-01-14T22:57:06.760Z,1.90
2019-01-14T22:59:37.380Z,1.90
2019-01-14T23:02:08.194Z,1.90
2019-01-14T23:04:38.798Z,1.90
2019-01-14T23:07:09.501Z,2.00
2019-01-14T23:09:40.113Z,2.00
2019-01-14T23:12:10.745Z,2.00
2019-01-14T23:14:41.357Z,2.00
2019-01-14T23:17:12.081Z,2.00
2019-01-14T23:19:42.700Z,2.00
2019-01-14T23:22:13.517Z,2.00
2019-01-14T23:24:44.137Z,2.00
2019-01-14T23:27:14.769Z,2.00
2019-01-14T23:29:45.465Z,2.00
2019-01-14T23:32:16.179Z,2.00
2019-01-14T23:34:46.878Z,2.00
2019-01-14T23:37:17.573Z,2.00
2019-01-14T23:39:48.193Z,2.00
2019-01-14T23:42:18.825Z,2.10
2019-01-14T23:44:49.434Z,2.10
2019-01-14T23:47:20.156Z,2.10
2019-01-14T23:49:50.855Z,2.10
2019-01-14T23:52:21.497Z,2.00
2019-01-14T23:54:52.114Z,2.00
2019-01-14T23:57:22.846Z,2.00
2019-01-14T23:59:53.515Z,2.00
